Terminal Aerodrome Forecast
Issued by NWS Upton, NY

Home | Current Version | Previous Version | Text Only | Print | Product List | Glossary On
Versions: 1 2 3 4 5 6 7 8 9 10 11 12 13 14 15 16 17 18 19 20 21 22 23 24 25 26 27 28 29 30 31 32 33 34 35 36 37 38 39 40 41 42 43 44 45 46 47 48 49 50
000
FTUS41 KOKX 031458 AAL
TAFLGA
TAF AMD
KLGA 031458Z 0315/0418 26011KT P6SM SCT040 BKN100
     FM031600 26012G22KT P6SM VCTS BKN035CB
      TEMPO 0317/0320 5SM -TSRA BKN030CB
     FM032200 27010KT P6SM VCSH SCT050 BKN100
     FM040400 VRB05KT P6SM SCT250
     FM041500 VRB05KT P6SM BKN100=

USA.gov is the U.S. government's official web portal to all federal, state and local government web resources and services.